Time;durP1;ratioP1;P1;durP2;ratioP2;P2;SDS_P1;SDS_P2;PMS_P1;PMS_P2;Temp;Humidity;BMP_temperature;BMP_pressure;BME280_temperature;BME280_humidity;BME280_pressure;Samples;Min_cycle;Max_cycle;Signal;HPM_P1;HPM_P2
2021/03/31 00:00:24;;;;;;;20.48;9.35;;;;;;;;;;5025338;28;20046;-66
2021/03/31 00:02:53;;;;;;;28.23;11.05;;;;;;;;;;5024416;28;20076;-66
2021/03/31 00:05:21;;;;;;;20.15;9.85;;;;;;;;;;5024849;28;20141;-66
2021/03/31 00:07:48;;;;;;;21.73;9.45;;;;;;;;;;5023363;28;20057;-65
2021/03/31 00:10:20;;;;;;;19.60;8.55;;;;;;;;;;5023431;28;20060;-65
2021/03/31 00:12:47;;;;;;;18.00;8.73;;;;;;;;;;5023567;28;20049;-63
2021/03/31 00:15:15;;;;;;;19.02;9.68;;;;;;;;;;5024545;28;20053;-65
2021/03/31 00:17:43;;;;;;;23.83;9.55;;;;;;;;;;5020077;28;20132;-64
2021/03/31 00:20:13;;;;;;;20.33;8.85;;;;;;;;;;5024611;28;20471;-64
2021/03/31 00:22:41;;;;;;;17.83;8.70;;;;;;;;;;5024776;28;20053;-65
2021/03/31 00:25:10;;;;;;;16.95;9.48;;;;;;;;;;5023906;28;20123;-64
2021/03/31 00:27:38;;;;;;;14.43;8.77;;;;;;;;;;5021316;28;20061;-64
2021/03/31 00:30:07;;;;;;;16.92;9.45;;;;;;;;;;5023900;28;20127;-65
2021/03/31 00:32:34;;;;;;;22.92;9.80;;;;;;;;;;5024498;28;20132;-66
2021/03/31 00:35:05;;;;;;;16.23;8.48;;;;;;;;;;5023640;28;20069;-65
2021/03/31 00:37:33;;;;;;;16.35;9.43;;;;;;;;;;5024086;28;20080;-64
2021/03/31 00:40:00;;;;;;;16.67;9.73;;;;;;;;;;5024319;28;20052;-65
2021/03/31 00:42:28;;;;;;;19.05;9.98;;;;;;;;;;5027291;28;20152;-65
2021/03/31 00:44:55;;;;;;;22.55;10.15;;;;;;;;;;5027104;28;20076;-64
2021/03/31 00:47:23;;;;;;;19.35;9.63;;;;;;;;;;5025967;28;20049;-64
2021/03/31 00:49:50;;;;;;;18.13;9.35;;;;;;;;;;5027200;28;20152;-64
2021/03/31 00:52:17;;;;;;;19.73;9.48;;;;;;;;;;5027325;28;20423;-66
2021/03/31 00:54:46;;;;;;;23.23;8.30;;;;;;;;;;5029047;28;20064;-63
2021/03/31 00:57:13;;;;;;;17.60;9.15;;;;;;;;;;5026460;28;20135;-65
2021/03/31 00:59:40;;;;;;;14.68;7.78;;;;;;;;;;5027439;28;20115;-64
2021/03/31 01:02:08;;;;;;;18.30;7.95;;;;;;;;;;5044242;23;20071;-70
2021/03/31 01:04:36;;;;;;;15.90;7.35;;;;;;;;;;5045754;28;20395;-70
2021/03/31 01:07:04;;;;;;;17.48;7.35;;;;;;;;;;5046356;28;20057;-71
2021/03/31 01:09:32;;;;;;;14.80;7.63;;;;;;;;;;5046368;28;20072;-70
2021/03/31 01:12:06;;;;;;;16.30;7.60;;;;;;;;;;5046585;28;20080;-71
2021/03/31 01:14:38;;;;;;;14.82;7.68;;;;;;;;;;5045975;28;20128;-70
2021/03/31 01:17:09;;;;;;;14.55;7.57;;;;;;;;;;5045904;28;20476;-70
2021/03/31 01:19:53;;;;;;;17.05;7.35;;;;;;;;;;5046035;28;20123;-70
2021/03/31 01:22:44;;;;;;;17.65;7.72;;;;;;;;;;5046497;28;20052;-70
2021/03/31 01:25:15;;;;;;;16.02;7.32;;;;;;;;;;5040616;28;20053;-71
2021/03/31 01:27:52;;;;;;;19.90;8.05;;;;;;;;;;5045996;28;20053;-71
2021/03/31 01:30:21;;;;;;;18.08;7.15;;;;;;;;;;5045706;28;20041;-70
2021/03/31 01:33:02;;;;;;;13.40;7.60;;;;;;;;;;5048438;28;20052;-70
2021/03/31 01:35:30;;;;;;;14.25;7.13;;;;;;;;;;5046406;28;20048;-70
2021/03/31 01:38:01;;;;;;;15.70;7.35;;;;;;;;;;5045728;28;20045;-70
2021/03/31 01:40:29;;;;;;;14.85;7.82;;;;;;;;;;5046468;28;20163;-70
2021/03/31 01:42:59;;;;;;;17.95;7.78;;;;;;;;;;5045670;28;20337;-71
2021/03/31 01:45:27;;;;;;;19.77;8.70;;;;;;;;;;5045541;28;20655;-70
2021/03/31 01:47:55;;;;;;;22.60;9.32;;;;;;;;;;5045760;28;20646;-70
2021/03/31 01:50:25;;;;;;;21.17;8.93;;;;;;;;;;5047974;28;20049;-70
2021/03/31 01:52:53;;;;;;;20.30;8.85;;;;;;;;;;5050114;28;20147;-71
2021/03/31 01:55:21;;;;;;;13.52;8.05;;;;;;;;;;5046208;28;20063;-70
2021/03/31 01:57:49;;;;;;;16.45;7.63;;;;;;;;;;5044895;28;20067;-70
2021/03/31 02:00:19;;;;;;;16.35;8.68;;;;;;;;;;5045908;28;20075;-69
2021/03/31 02:02:49;;;;;;;13.20;7.07;;;;;;;;;;5045601;28;20052;-70
2021/03/31 02:05:17;;;;;;;14.25;7.13;;;;;;;;;;5044098;28;20077;-69
2021/03/31 02:07:46;;;;;;;16.13;8.07;;;;;;;;;;5045832;28;20052;-70
2021/03/31 02:10:15;;;;;;;17.70;8.23;;;;;;;;;;5045547;28;20053;-71
2021/03/31 02:12:43;;;;;;;12.80;7.88;;;;;;;;;;5044808;28;20081;-70
2021/03/31 02:15:13;;;;;;;13.02;7.40;;;;;;;;;;5045392;28;20120;-70
2021/03/31 02:17:41;;;;;;;16.05;7.22;;;;;;;;;;5047782;28;20089;-71
2021/03/31 02:20:09;;;;;;;17.00;7.57;;;;;;;;;;5045354;28;20164;-70
2021/03/31 02:22:37;;;;;;;15.63;8.20;;;;;;;;;;5045987;28;20055;-71
2021/03/31 02:25:05;;;;;;;15.40;7.68;;;;;;;;;;5056194;28;20154;-69
2021/03/31 02:27:34;;;;;;;13.02;7.00;;;;;;;;;;5044697;28;20044;-69
2021/03/31 02:30:02;;;;;;;18.38;7.40;;;;;;;;;;5044972;28;20159;-69
2021/03/31 02:32:31;;;;;;;15.27;7.80;;;;;;;;;;5044945;28;20556;-71
2021/03/31 02:34:59;;;;;;;15.88;7.50;;;;;;;;;;5045312;28;20146;-70
2021/03/31 02:37:27;;;;;;;16.15;7.28;;;;;;;;;;5044066;28;20120;-70
2021/03/31 02:39:55;;;;;;;15.50;7.30;;;;;;;;;;5044554;28;20340;-70
2021/03/31 02:42:23;;;;;;;16.15;6.80;;;;;;;;;;5030877;28;20104;-72
2021/03/31 02:44:52;;;;;;;15.85;7.45;;;;;;;;;;5045094;28;20556;-70
2021/03/31 02:47:22;;;;;;;18.30;7.65;;;;;;;;;;5043972;28;20033;-70
2021/03/31 02:49:52;;;;;;;15.65;7.38;;;;;;;;;;5044978;28;20139;-72
2021/03/31 02:52:20;;;;;;;19.40;7.47;;;;;;;;;;5047299;28;20056;-70
2021/03/31 02:54:48;;;;;;;17.17;7.20;;;;;;;;;;5045239;28;20135;-72
2021/03/31 02:57:16;;;;;;;14.25;6.97;;;;;;;;;;5043649;28;20544;-71
2021/03/31 02:59:44;;;;;;;18.40;6.90;;;;;;;;;;5045810;28;20057;-69
2021/03/31 03:02:12;;;;;;;17.33;7.10;;;;;;;;;;5043383;28;20052;-70
2021/03/31 03:04:40;;;;;;;12.57;6.65;;;;;;;;;;5045128;28;20146;-69
2021/03/31 03:07:08;;;;;;;16.13;7.20;;;;;;;;;;5043357;28;20045;-70
2021/03/31 03:09:35;;;;;;;16.77;7.25;;;;;;;;;;5044411;28;20543;-70
2021/03/31 03:12:03;;;;;;;16.55;7.68;;;;;;;;;;5043926;28;20136;-70
2021/03/31 03:14:30;;;;;;;18.50;8.00;;;;;;;;;;5044805;28;20111;-71
2021/03/31 03:16:58;;;;;;;15.65;7.15;;;;;;;;;;5043547;28;20099;-70
2021/03/31 03:19:26;;;;;;;16.88;7.75;;;;;;;;;;5044437;28;20053;-71
2021/03/31 03:21:54;;;;;;;16.60;6.93;;;;;;;;;;5043357;28;20045;-69
2021/03/31 03:24:23;;;;;;;13.93;7.25;;;;;;;;;;5059603;28;20079;-70
2021/03/31 03:26:51;;;;;;;15.65;7.35;;;;;;;;;;5046446;28;20472;-70
2021/03/31 03:29:19;;;;;;;15.10;7.10;;;;;;;;;;5043983;28;20072;-71
2021/03/31 03:31:46;;;;;;;16.45;7.18;;;;;;;;;;5043627;28;20516;-72
2021/03/31 03:34:14;;;;;;;15.38;7.20;;;;;;;;;;5044439;28;20041;-70
2021/03/31 03:36:43;;;;;;;14.27;6.82;;;;;;;;;;5044365;28;20051;-71
2021/03/31 03:39:10;;;;;;;13.85;6.75;;;;;;;;;;5043400;28;20048;-71
2021/03/31 03:41:38;;;;;;;12.30;6.45;;;;;;;;;;5043574;28;20107;-71
2021/03/31 03:44:05;;;;;;;13.95;6.80;;;;;;;;;;5044462;28;20083;-70
2021/03/31 03:46:33;;;;;;;14.38;6.95;;;;;;;;;;5044323;28;20094;-72
2021/03/31 03:49:01;;;;;;;16.13;7.60;;;;;;;;;;5042895;28;20139;-71
2021/03/31 03:51:29;;;;;;;16.50;6.63;;;;;;;;;;5044634;28;20110;-69
2021/03/31 03:53:58;;;;;;;13.93;6.50;;;;;;;;;;5043955;28;20072;-71
2021/03/31 03:56:25;;;;;;;12.45;7.07;;;;;;;;;;5043864;28;20517;-70
2021/03/31 03:58:52;;;;;;;12.88;7.13;;;;;;;;;;5043864;28;20041;-70
2021/03/31 04:01:20;;;;;;;18.00;6.60;;;;;;;;;;5043680;28;20449;-69
2021/03/31 04:03:47;;;;;;;14.85;7.25;;;;;;;;;;5043567;28;20136;-69
2021/03/31 04:06:15;;;;;;;24.98;7.53;;;;;;;;;;5043959;28;20168;-69
2021/03/31 04:08:42;;;;;;;14.98;6.78;;;;;;;;;;5041195;28;20041;-69
2021/03/31 04:11:11;;;;;;;17.10;7.18;;;;;;;;;;5044376;28;20103;-69
2021/03/31 04:13:39;;;;;;;14.23;6.03;;;;;;;;;;5044399;28;20124;-70
2021/03/31 04:16:08;;;;;;;16.92;6.95;;;;;;;;;;5047446;28;20141;-70
2021/03/31 04:18:37;;;;;;;15.38;7.63;;;;;;;;;;5046944;28;20077;-69
2021/03/31 04:21:05;;;;;;;17.25;7.07;;;;;;;;;;5042957;28;20049;-70
2021/03/31 04:23:34;;;;;;;13.05;6.47;;;;;;;;;;5056034;28;20714;-69
2021/03/31 04:26:02;;;;;;;15.45;7.00;;;;;;;;;;5057339;28;20045;-70
2021/03/31 04:28:31;;;;;;;14.38;6.75;;;;;;;;;;5046616;28;20135;-69
2021/03/31 04:30:59;;;;;;;18.20;7.47;;;;;;;;;;5047230;28;20144;-70
2021/03/31 04:33:27;;;;;;;19.13;6.90;;;;;;;;;;5046285;28;20053;-70
2021/03/31 04:35:55;;;;;;;11.38;6.18;;;;;;;;;;5046259;28;20053;-70
2021/03/31 04:38:23;;;;;;;19.15;7.15;;;;;;;;;;5042555;28;20132;-70
2021/03/31 04:40:54;;;;;;;13.75;6.40;;;;;;;;;;5048035;28;20351;-70
2021/03/31 04:43:22;;;;;;;21.58;7.00;;;;;;;;;;5047245;28;20210;-71
2021/03/31 04:45:51;;;;;;;13.50;6.78;;;;;;;;;;5047549;28;20048;-70
2021/03/31 04:48:18;;;;;;;14.00;6.55;;;;;;;;;;5047225;28;20132;-71
2021/03/31 04:50:46;;;;;;;15.45;8.07;;;;;;;;;;5048940;28;20052;-72
2021/03/31 04:53:13;;;;;;;15.40;6.45;;;;;;;;;;5046621;28;20407;-71
2021/03/31 04:55:41;;;;;;;13.82;6.32;;;;;;;;;;5047315;28;20049;-70
2021/03/31 04:58:08;;;;;;;11.95;5.88;;;;;;;;;;5046602;28;20045;-70
2021/03/31 05:00:36;;;;;;;16.27;6.30;;;;;;;;;;5047754;28;20144;-69
2021/03/31 05:03:04;;;;;;;14.57;6.10;;;;;;;;;;5046309;28;20061;-70
2021/03/31 05:05:32;;;;;;;19.25;5.75;;;;;;;;;;5046278;28;20576;-69
2021/03/31 05:08:00;;;;;;;16.17;6.07;;;;;;;;;;5046177;28;20257;-69
2021/03/31 05:10:28;;;;;;;13.60;5.80;;;;;;;;;;5044065;28;20076;-70
2021/03/31 05:12:55;;;;;;;13.80;6.22;;;;;;;;;;5044152;28;20483;-71
2021/03/31 05:15:23;;;;;;;12.80;6.10;;;;;;;;;;5038599;28;20337;-69
2021/03/31 05:17:50;;;;;;;12.30;5.53;;;;;;;;;;5025958;28;20560;-70
2021/03/31 05:20:20;;;;;;;17.63;6.15;;;;;;;;;;5033002;28;20551;-70
2021/03/31 05:22:51;;;;;;;19.05;6.13;;;;;;;;;;5035313;28;20727;-71
2021/03/31 05:25:21;;;;;;;14.35;6.53;;;;;;;;;;5042687;28;20045;-71
2021/03/31 05:27:53;;;;;;;17.75;6.00;;;;;;;;;;5040206;28;20053;-71
2021/03/31 05:30:21;;;;;;;13.18;6.18;;;;;;;;;;5042981;28;20051;-70
2021/03/31 05:32:48;;;;;;;16.52;5.88;;;;;;;;;;5043429;28;20084;-71
2021/03/31 05:35:16;;;;;;;18.23;6.15;;;;;;;;;;5043052;28;20048;-72
2021/03/31 05:37:45;;;;;;;27.60;6.20;;;;;;;;;;5027649;28;20528;-71
2021/03/31 05:40:12;;;;;;;16.73;6.20;;;;;;;;;;5035449;28;20128;-72
2021/03/31 05:42:40;;;;;;;16.35;6.10;;;;;;;;;;5046851;28;20117;-71
2021/03/31 05:45:08;;;;;;;15.70;6.80;;;;;;;;;;5045087;28;20693;-70
2021/03/31 05:47:37;;;;;;;17.80;6.47;;;;;;;;;;5043953;28;20052;-70
2021/03/31 05:50:05;;;;;;;14.73;5.70;;;;;;;;;;5041416;28;20140;-71
2021/03/31 05:52:33;;;;;;;15.82;6.68;;;;;;;;;;5040872;28;20037;-72
2021/03/31 05:55:02;;;;;;;15.88;5.90;;;;;;;;;;5047005;28;20048;-71
2021/03/31 05:57:31;;;;;;;13.25;5.95;;;;;;;;;;5022285;28;20053;-70
2021/03/31 05:59:59;;;;;;;14.13;5.70;;;;;;;;;;5036547;28;20142;-70
2021/03/31 06:02:29;;;;;;;18.27;5.32;;;;;;;;;;5042283;28;20049;-70
2021/03/31 06:04:57;;;;;;;23.13;5.85;;;;;;;;;;5042382;28;20041;-71
2021/03/31 06:07:25;;;;;;;20.23;6.75;;;;;;;;;;5037326;28;20045;-71
2021/03/31 06:10:10;;;;;;;14.20;5.72;;;;;;;;;;5042754;28;20132;-71
2021/03/31 06:12:39;;;;;;;14.05;5.82;;;;;;;;;;5043026;28;20059;-70
2021/03/31 06:15:11;;;;;;;15.30;5.30;;;;;;;;;;5042175;28;20152;-71
2021/03/31 06:17:46;;;;;;;16.73;5.78;;;;;;;;;;5042379;28;20057;-71
2021/03/31 06:20:14;;;;;;;25.55;6.68;;;;;;;;;;5042984;28;20360;-71
2021/03/31 06:22:52;;;;;;;20.88;5.72;;;;;;;;;;5042624;28;20056;-71
2021/03/31 06:25:22;;;;;;;20.52;5.50;;;;;;;;;;5041166;28;20107;-72
2021/03/31 06:27:53;;;;;;;22.40;5.93;;;;;;;;;;5034490;28;20048;-71
2021/03/31 06:30:22;;;;;;;15.73;6.13;;;;;;;;;;5041609;28;20136;-72
2021/03/31 06:32:51;;;;;;;16.73;4.45;;;;;;;;;;5042793;28;20107;-71
2021/03/31 06:35:22;;;;;;;18.52;6.93;;;;;;;;;;5042301;28;20044;-71
2021/03/31 06:37:50;;;;;;;11.68;4.70;;;;;;;;;;5037906;28;20516;-72
2021/03/31 06:40:32;;;;;;;14.23;4.93;;;;;;;;;;5042224;28;20138;-71
2021/03/31 06:43:08;;;;;;;17.48;5.10;;;;;;;;;;5041191;28;20069;-71
2021/03/31 06:45:38;;;;;;;17.10;5.30;;;;;;;;;;5038517;28;20686;-71
2021/03/31 06:48:08;;;;;;;10.85;3.40;;;;;;;;;;5041408;28;20556;-71
2021/03/31 06:50:38;;;;;;;13.63;3.55;;;;;;;;;;5038499;28;20053;-72
2021/03/31 06:53:06;;;;;;;13.30;3.92;;;;;;;;;;5033958;28;20057;-72
2021/03/31 06:55:35;;;;;;;13.82;4.07;;;;;;;;;;5039930;28;20063;-72
2021/03/31 06:58:04;;;;;;;11.63;4.07;;;;;;;;;;5044110;28;20052;-72
2021/03/31 07:00:39;;;;;;;13.13;3.72;;;;;;;;;;5042679;28;20244;-72
2021/03/31 07:03:09;;;;;;;11.73;3.70;;;;;;;;;;5043096;28;20456;-72
2021/03/31 07:05:40;;;;;;;15.13;4.10;;;;;;;;;;5043622;28;20056;-72
2021/03/31 07:08:11;;;;;;;16.20;3.33;;;;;;;;;;5033923;28;20044;-72
2021/03/31 07:10:44;;;;;;;19.38;3.90;;;;;;;;;;5043359;28;20063;-71
2021/03/31 07:13:12;;;;;;;8.90;3.60;;;;;;;;;;5042734;28;20072;-72
2021/03/31 07:15:40;;;;;;;13.32;3.40;;;;;;;;;;5043250;28;20130;-73
2021/03/31 07:18:08;;;;;;;12.60;3.40;;;;;;;;;;5039556;28;20049;-73
2021/03/31 07:20:36;;;;;;;20.42;4.13;;;;;;;;;;5043842;28;20064;-73
2021/03/31 07:23:06;;;;;;;12.73;3.53;;;;;;;;;;5044121;28;20059;-73
2021/03/31 07:25:34;;;;;;;16.73;3.90;;;;;;;;;;5044189;28;20052;-73
2021/03/31 07:28:03;;;;;;;11.02;3.75;;;;;;;;;;5037130;28;20287;-73
2021/03/31 07:30:32;;;;;;;16.38;3.97;;;;;;;;;;5043091;28;20132;-72
2021/03/31 07:33:11;;;;;;;9.45;3.20;;;;;;;;;;5044619;28;20257;-72
2021/03/31 07:35:39;;;;;;;11.32;3.60;;;;;;;;;;5043714;28;20049;-73
2021/03/31 07:38:08;;;;;;;16.85;3.80;;;;;;;;;;5043444;28;20102;-72
2021/03/31 07:40:38;;;;;;;8.60;3.15;;;;;;;;;;5043805;28;20049;-73
2021/03/31 07:43:10;;;;;;;12.00;4.03;;;;;;;;;;5031910;28;20152;-73
2021/03/31 07:45:40;;;;;;;11.38;3.78;;;;;;;;;;5044316;28;20056;-73
2021/03/31 07:48:09;;;;;;;18.30;4.38;;;;;;;;;;5046467;28;20044;-73
2021/03/31 07:50:37;;;;;;;15.90;3.78;;;;;;;;;;5046158;28;20044;-73
2021/03/31 07:53:07;;;;;;;14.85;3.60;;;;;;;;;;5047246;28;20144;-73
2021/03/31 07:55:44;;;;;;;17.55;3.60;;;;;;;;;;5046361;28;20059;-72
2021/03/31 07:58:23;;;;;;;15.23;4.55;;;;;;;;;;5041541;28;20550;-74
2021/03/31 08:01:02;;;;;;;20.67;5.25;;;;;;;;;;5039950;28;20052;-73
2021/03/31 08:03:31;;;;;;;11.60;5.30;;;;;;;;;;5042583;28;20163;-74
2021/03/31 08:06:07;;;;;;;14.77;5.07;;;;;;;;;;5044089;28;20061;-73
2021/03/31 08:08:36;;;;;;;12.20;4.68;;;;;;;;;;5041601;28;20174;-73
2021/03/31 08:11:04;;;;;;;13.43;5.90;;;;;;;;;;5044376;28;20428;-72
2021/03/31 08:13:34;;;;;;;13.55;5.25;;;;;;;;;;5038637;28;20443;-72
2021/03/31 08:16:03;;;;;;;11.50;6.22;;;;;;;;;;5044689;28;20393;-72
2021/03/31 08:18:35;;;;;;;10.95;5.63;;;;;;;;;;5043013;28;20423;-75
2021/03/31 08:21:24;;;;;;;13.60;5.35;;;;;;;;;;5042588;28;20049;-73
2021/03/31 08:23:57;;;;;;;13.02;6.10;;;;;;;;;;5043098;28;20472;-73
2021/03/31 08:26:30;;;;;;;13.48;5.78;;;;;;;;;;5044060;28;20064;-72
2021/03/31 08:29:00;;;;;;;15.05;5.80;;;;;;;;;;5027104;28;20604;-76
2021/03/31 08:31:29;;;;;;;14.38;5.28;;;;;;;;;;5053228;28;20080;-71
2021/03/31 08:33:57;;;;;;;11.65;4.85;;;;;;;;;;5043150;28;20049;-71
2021/03/31 08:36:25;;;;;;;11.20;4.22;;;;;;;;;;5043780;28;20047;-74
2021/03/31 08:38:54;;;;;;;13.90;5.10;;;;;;;;;;5043544;28;20048;-72
2021/03/31 08:41:23;;;;;;;10.85;4.45;;;;;;;;;;5044496;28;20072;-72
2021/03/31 08:43:52;;;;;;;11.68;4.70;;;;;;;;;;5041801;28;20131;-71
2021/03/31 08:46:30;;;;;;;15.05;4.75;;;;;;;;;;5040750;28;20118;-71
2021/03/31 08:48:59;;;;;;;11.50;4.57;;;;;;;;;;5043881;28;20052;-71
2021/03/31 08:51:27;;;;;;;12.43;4.95;;;;;;;;;;5051805;28;20055;-72
2021/03/31 08:54:01;;;;;;;16.40;5.53;;;;;;;;;;5043538;28;20049;-72
2021/03/31 08:56:29;;;;;;;13.85;4.93;;;;;;;;;;5042748;28;20059;-71
2021/03/31 08:58:57;;;;;;;14.32;5.47;;;;;;;;;;5042717;28;20053;-72
2021/03/31 09:01:26;;;;;;;12.93;5.07;;;;;;;;;;5035095;28;20501;-72
2021/03/31 09:04:09;;;;;;;11.77;5.20;;;;;;;;;;5043601;28;20145;-72
2021/03/31 09:06:40;;;;;;;11.25;4.97;;;;;;;;;;5040707;28;20377;-72
2021/03/31 09:09:09;;;;;;;12.80;4.57;;;;;;;;;;5042770;28;20819;-72
2021/03/31 09:11:38;;;;;;;14.57;4.20;;;;;;;;;;5043544;28;20157;-73
2021/03/31 09:14:16;;;;;;;12.48;3.58;;;;;;;;;;5041154;28;20083;-71
2021/03/31 09:16:50;;;;;;;10.50;3.30;;;;;;;;;;5042335;28;20049;-74
2021/03/31 09:19:27;;;;;;;14.85;4.03;;;;;;;;;;5036551;28;20164;-73
2021/03/31 09:21:56;;;;;;;12.18;3.97;;;;;;;;;;5042940;28;20045;-71
2021/03/31 09:24:27;;;;;;;10.02;4.05;;;;;;;;;;5043340;28;20048;-71
2021/03/31 09:26:56;;;;;;;10.30;4.20;;;;;;;;;;5042873;28;20044;-71
2021/03/31 09:29:25;;;;;;;12.20;3.83;;;;;;;;;;5037429;28;20107;-72
2021/03/31 09:31:53;;;;;;;9.93;4.03;;;;;;;;;;5038229;28;20045;-74
2021/03/31 09:34:22;;;;;;;9.77;3.90;;;;;;;;;;5046051;28;20068;-72
2021/03/31 09:37:03;;;;;;;10.57;4.18;;;;;;;;;;5043718;28;20045;-72
2021/03/31 09:39:39;;;;;;;9.75;3.55;;;;;;;;;;5038132;28;20148;-72
2021/03/31 09:42:15;;;;;;;9.85;3.60;;;;;;;;;;5035901;28;20041;-74
2021/03/31 09:44:43;;;;;;;8.13;3.58;;;;;;;;;;5043741;28;20052;-75
2021/03/31 09:47:11;;;;;;;12.73;3.95;;;;;;;;;;5041837;28;20474;-71
2021/03/31 09:49:42;;;;;;;11.10;3.55;;;;;;;;;;5042069;28;20056;-71
2021/03/31 09:52:10;;;;;;;9.90;4.28;;;;;;;;;;5040074;28;20041;-73
2021/03/31 09:54:39;;;;;;;7.07;3.70;;;;;;;;;;5038577;28;20792;-73
2021/03/31 09:57:12;;;;;;;6.78;3.70;;;;;;;;;;5041465;28;20150;-72
2021/03/31 09:59:45;;;;;;;13.27;4.05;;;;;;;;;;5041985;28;20382;-71
2021/03/31 10:02:15;;;;;;;9.25;3.42;;;;;;;;;;5041859;28;20633;-73
2021/03/31 10:04:43;;;;;;;10.45;4.40;;;;;;;;;;5035301;28;20049;-73
2021/03/31 10:07:14;;;;;;;12.20;4.75;;;;;;;;;;5039025;28;20164;-70
2021/03/31 10:10:00;;;;;;;8.95;4.32;;;;;;;;;;5042958;28;20484;-71
2021/03/31 10:12:36;;;;;;;11.13;3.65;;;;;;;;;;5041125;28;20053;-73
2021/03/31 10:15:24;;;;;;;12.80;4.10;;;;;;;;;;5040996;28;20139;-71
2021/03/31 10:18:01;;;;;;;8.05;3.35;;;;;;;;;;5031950;28;20047;-70
2021/03/31 10:20:34;;;;;;;11.07;3.70;;;;;;;;;;5041618;28;20048;-72
2021/03/31 10:23:03;;;;;;;10.07;4.00;;;;;;;;;;5042573;28;20056;-73
2021/03/31 10:25:51;;;;;;;11.18;3.88;;;;;;;;;;5042193;28;20163;-72
2021/03/31 10:28:35;;;;;;;12.98;4.53;;;;;;;;;;5036090;28;20049;-71
2021/03/31 10:31:29;;;;;;;15.43;4.35;;;;;;;;;;5044721;28;20059;-75
2021/03/31 10:34:14;;;;;;;11.48;4.55;;;;;;;;;;5039283;28;20451;-73
2021/03/31 10:36:59;;;;;;;9.88;4.28;;;;;;;;;;5049527;28;20061;-71
2021/03/31 10:48:04;;;;;;;11.77;4.32;;;;;;;;;;5040322;28;20126;-72
2021/03/31 10:50:38;;;;;;;12.63;4.60;;;;;;;;;;5037549;28;20520;-71
2021/03/31 10:53:07;;;;;;;15.15;4.15;;;;;;;;;;5035376;28;20045;-74
2021/03/31 10:55:35;;;;;;;12.25;4.00;;;;;;;;;;5045779;28;20317;-72
2021/03/31 10:58:03;;;;;;;14.98;4.80;;;;;;;;;;5044271;28;20136;-77
2021/03/31 11:00:35;;;;;;;19.50;5.97;;;;;;;;;;5044279;28;20386;-74
2021/03/31 11:03:20;;;;;;;13.15;5.43;;;;;;;;;;5043536;28;20055;-73
2021/03/31 11:05:52;;;;;;;20.08;5.53;;;;;;;;;;5041745;28;20544;-71
2021/03/31 11:08:20;;;;;;;12.73;4.85;;;;;;;;;;5035289;28;20044;-71
2021/03/31 11:10:50;;;;;;;11.65;4.90;;;;;;;;;;5042997;28;20045;-74
2021/03/31 11:13:18;;;;;;;14.38;5.10;;;;;;;;;;5024658;28;20168;-73
2021/03/31 11:15:46;;;;;;;11.73;4.97;;;;;;;;;;5034356;28;20493;-73
2021/03/31 11:18:19;;;;;;;15.57;4.90;;;;;;;;;;5043025;28;20369;-75
2021/03/31 11:21:06;;;;;;;15.30;5.18;;;;;;;;;;5043783;28;20059;-75
2021/03/31 11:26:22;;;;;;;13.23;5.18;;;;;;;;;;5042454;28;20424;-71
2021/03/31 11:28:50;;;;;;;14.82;5.75;;;;;;;;;;5036997;28;20045;-73
2021/03/31 11:31:18;;;;;;;12.20;4.38;;;;;;;;;;5043894;28;20044;-71
2021/03/31 11:33:46;;;;;;;14.18;4.55;;;;;;;;;;5043093;28;20045;-73
2021/03/31 11:36:14;;;;;;;11.00;5.65;;;;;;;;;;5044545;28;20140;-74
2021/03/31 11:38:44;;;;;;;11.75;4.95;;;;;;;;;;5042914;28;20057;-72
2021/03/31 11:41:11;;;;;;;18.13;5.53;;;;;;;;;;5044857;28;20056;-73
2021/03/31 11:43:40;;;;;;;11.70;5.18;;;;;;;;;;5045281;28;20128;-74
2021/03/31 11:46:08;;;;;;;19.55;5.32;;;;;;;;;;5038622;28;20059;-72
2021/03/31 11:48:36;;;;;;;10.05;5.40;;;;;;;;;;5042282;28;20493;-74
2021/03/31 11:51:06;;;;;;;13.23;5.18;;;;;;;;;;5048161;28;20134;-74
2021/03/31 11:53:33;;;;;;;17.20;5.82;;;;;;;;;;5044439;28;20052;-74
2021/03/31 11:56:03;;;;;;;12.27;5.50;;;;;;;;;;5039381;28;20041;-75
2021/03/31 11:58:30;;;;;;;12.68;5.50;;;;;;;;;;5048704;28;20139;-74
2021/03/31 12:01:00;;;;;;;15.93;6.28;;;;;;;;;;5046336;28;20107;-74
2021/03/31 12:03:28;;;;;;;17.35;6.00;;;;;;;;;;5033579;28;20574;-74
2021/03/31 12:05:56;;;;;;;13.82;6.00;;;;;;;;;;5044251;28;20059;-73
2021/03/31 12:08:24;;;;;;;12.02;5.63;;;;;;;;;;5043198;28;20060;-74
2021/03/31 12:10:52;;;;;;;11.15;5.47;;;;;;;;;;5043038;28;20446;-72
2021/03/31 12:13:21;;;;;;;12.43;5.70;;;;;;;;;;5043479;28;20041;-71
2021/03/31 12:15:48;;;;;;;10.27;5.35;;;;;;;;;;5038686;28;20484;-72
2021/03/31 12:18:17;;;;;;;11.77;5.75;;;;;;;;;;5039442;28;21595;-74
2021/03/31 12:20:45;;;;;;;15.30;6.57;;;;;;;;;;5034778;28;20049;-75
2021/03/31 12:23:13;;;;;;;15.20;7.03;;;;;;;;;;5044005;28;20041;-72
2021/03/31 12:25:43;;;;;;;12.80;5.82;;;;;;;;;;5048415;28;20053;-72
2021/03/31 12:28:11;;;;;;;14.50;6.70;;;;;;;;;;5041815;28;20053;-73
2021/03/31 12:30:39;;;;;;;14.93;6.30;;;;;;;;;;5044013;28;20467;-75
2021/03/31 12:33:07;;;;;;;11.07;5.68;;;;;;;;;;5042110;28;20049;-73
2021/03/31 12:35:36;;;;;;;12.30;6.30;;;;;;;;;;5035153;28;20049;-74
2021/03/31 12:44:50;;;;;;;16.30;5.55;;;;;;;;;;5044513;28;20056;-72
2021/03/31 12:47:37;;;;;;;11.20;5.18;;;;;;;;;;5043005;28;20428;-73
2021/03/31 12:50:20;;;;;;;14.80;6.82;;;;;;;;;;5036365;28;20048;-74
2021/03/31 12:53:05;;;;;;;12.57;6.40;;;;;;;;;;5042180;28;20109;-77
2021/03/31 12:55:35;;;;;;;12.35;6.80;;;;;;;;;;5044582;28;20052;-72
2021/03/31 12:58:05;;;;;;;12.48;6.90;;;;;;;;;;5044378;28;20062;-75
2021/03/31 13:00:34;;;;;;;14.27;6.43;;;;;;;;;;5043172;28;20076;-77
2021/03/31 13:03:22;;;;;;;14.20;6.05;;;;;;;;;;5036539;28;20081;-72
2021/03/31 13:05:50;;;;;;;16.60;7.40;;;;;;;;;;5043419;28;20158;-72
2021/03/31 13:08:19;;;;;;;13.10;6.78;;;;;;;;;;5041435;28;20045;-74
2021/03/31 13:11:10;;;;;;;17.25;6.40;;;;;;;;;;5040484;28;20503;-74
2021/03/31 13:16:29;;;;;;;12.48;7.30;;;;;;;;;;5040931;28;20737;-73
2021/03/31 13:22:17;;;;;;;12.13;6.93;;;;;;;;;;5043038;28;20056;-74
2021/03/31 13:24:52;;;;;;;12.50;7.35;;;;;;;;;;5036231;28;20072;-77
2021/03/31 13:30:51;;;;;;;11.07;6.70;;;;;;;;;;5001116;28;20053;-73
2021/03/31 13:36:29;;;;;;;16.17;8.50;;;;;;;;;;5039349;28;20048;-71
2021/03/31 13:39:00;;;;;;;13.00;7.90;;;;;;;;;;5034552;28;20048;-72
2021/03/31 13:41:31;;;;;;;13.88;7.65;;;;;;;;;;5042769;28;20060;-73
2021/03/31 13:44:01;;;;;;;21.45;9.13;;;;;;;;;;5041691;28;20041;-73
2021/03/31 13:46:29;;;;;;;16.73;8.23;;;;;;;;;;5042004;28;20049;-71
2021/03/31 13:49:12;;;;;;;18.35;7.63;;;;;;;;;;5052701;28;20404;-71
2021/03/31 13:51:45;;;;;;;19.02;8.05;;;;;;;;;;5047715;28;20485;-73
2021/03/31 13:54:18;;;;;;;18.63;8.45;;;;;;;;;;5039628;28;20482;-75
2021/03/31 13:56:48;;;;;;;18.75;9.18;;;;;;;;;;5030020;28;20047;-70
2021/03/31 13:59:17;;;;;;;20.23;9.13;;;;;;;;;;5043588;28;20049;-72
2021/03/31 14:01:45;;;;;;;14.63;8.27;;;;;;;;;;5043129;28;20045;-70
2021/03/31 14:04:33;;;;;;;18.83;7.63;;;;;;;;;;5045309;28;20512;-71
2021/03/31 14:07:21;;;;;;;19.33;7.90;;;;;;;;;;5037921;28;20060;-72
2021/03/31 14:09:48;;;;;;;17.15;8.13;;;;;;;;;;5044810;28;20130;-73
2021/03/31 14:12:37;;;;;;;17.42;8.35;;;;;;;;;;5036370;28;20045;-70
2021/03/31 14:15:25;;;;;;;15.88;7.05;;;;;;;;;;5044696;28;20333;-74
2021/03/31 14:18:14;;;;;;;16.02;7.85;;;;;;;;;;5036820;28;20167;-74
2021/03/31 14:20:42;;;;;;;17.60;9.35;;;;;;;;;;5044494;28;21243;-71
2021/03/31 14:23:10;;;;;;;19.42;9.60;;;;;;;;;;5046436;28;20593;-72
2021/03/31 14:25:38;;;;;;;16.83;8.48;;;;;;;;;;5043046;28;20049;-73
2021/03/31 14:28:07;;;;;;;19.63;9.60;;;;;;;;;;5039081;28;20527;-72
2021/03/31 14:30:46;;;;;;;24.85;9.88;;;;;;;;;;5043896;28;20048;-71
2021/03/31 14:33:34;;;;;;;16.95;9.63;;;;;;;;;;5044824;28;20049;-72
2021/03/31 14:36:22;;;;;;;25.15;9.75;;;;;;;;;;5037102;28;20300;-72
2021/03/31 14:38:49;;;;;;;20.17;8.63;;;;;;;;;;5039150;28;20056;-72
2021/03/31 14:41:37;;;;;;;19.15;9.40;;;;;;;;;;5029012;28;20049;-72
2021/03/31 14:44:25;;;;;;;13.45;7.75;;;;;;;;;;5036078;28;20381;-70
2021/03/31 14:46:53;;;;;;;15.93;8.77;;;;;;;;;;5038806;28;20049;-71
2021/03/31 14:49:41;;;;;;;21.35;8.32;;;;;;;;;;5025612;28;20253;-71
2021/03/31 14:57:44;;;;;;;26.35;9.13;;;;;;;;;;5042197;28;20063;-72
2021/03/31 15:00:13;;;;;;;22.17;9.93;;;;;;;;;;5043231;28;20072;-71
2021/03/31 15:02:41;;;;;;;18.58;9.57;;;;;;;;;;5044164;28;20503;-74
2021/03/31 15:05:09;;;;;;;17.20;9.23;;;;;;;;;;5027539;28;20485;-72
2021/03/31 15:07:37;;;;;;;20.10;9.15;;;;;;;;;;5039831;28;20493;-71
2021/03/31 15:10:05;;;;;;;21.55;10.05;;;;;;;;;;5044055;28;20437;-72
2021/03/31 15:12:53;;;;;;;19.20;9.00;;;;;;;;;;5044398;28;20056;-72
2021/03/31 15:15:42;;;;;;;17.70;9.45;;;;;;;;;;5040555;28;20523;-74
2021/03/31 15:18:30;;;;;;;22.98;9.82;;;;;;;;;;5031316;28;20052;-71
2021/03/31 15:21:30;;;;;;;18.42;8.93;;;;;;;;;;5043643;28;20387;-73
2021/03/31 15:24:17;;;;;;;18.90;9.07;;;;;;;;;;5037466;28;20076;-71
2021/03/31 15:26:45;;;;;;;19.85;8.98;;;;;;;;;;5043311;28;20485;-72
2021/03/31 15:29:33;;;;;;;21.70;8.88;;;;;;;;;;5016273;28;20080;-73